sensor_id;sensor_type;location;lat;lon;timestamp;P1;durP1;ratioP1;P2;durP2;ratioP2
64018;SDS011;66942;52.138;5.216;2023-03-14T00:01:27;25.0;;;9.1;;
64018;SDS011;66942;52.138;5.216;2023-03-14T00:04:39;24.6;;;8.9;;
64018;SDS011;66942;52.138;5.216;2023-03-14T00:06:15;26.4;;;9.5;;
64018;SDS011;66942;52.138;5.216;2023-03-14T00:07:53;26.8;;;9.1;;
64018;SDS011;66942;52.138;5.216;2023-03-14T00:09:29;24.7;;;8.71;;
64018;SDS011;66942;52.138;5.216;2023-03-14T00:12:43;21.9;;;8.31;;
64018;SDS011;66942;52.138;5.216;2023-03-14T00:14:20;23.0;;;9.1;;
64018;SDS011;66942;52.138;5.216;2023-03-14T00:16:00;27.2;;;8.81;;
64018;SDS011;66942;52.138;5.216;2023-03-14T00:19:14;25.1;;;8.31;;
64018;SDS011;66942;52.138;5.216;2023-03-14T00:20:51;25.5;;;8.2;;
64018;SDS011;66942;52.138;5.216;2023-03-14T00:22:28;25.5;;;8.4;;
64018;SDS011;66942;52.138;5.216;2023-03-14T00:24:06;25.8;;;8.71;;
64018;SDS011;66942;52.138;5.216;2023-03-14T00:27:19;24.8;;;8.4;;
64018;SDS011;66942;52.138;5.216;2023-03-14T00:28:55;29.4;;;9.6;;
64018;SDS011;66942;52.138;5.216;2023-03-14T00:30:31;25.9;;;8.2;;
64018;SDS011;66942;52.138;5.216;2023-03-14T00:33:44;22.7;;;8.6;;
64018;SDS011;66942;52.138;5.216;2023-03-14T00:35:20;26.6;;;9.31;;
64018;SDS011;66942;52.138;5.216;2023-03-14T00:36:57;27.3;;;10.3;;
64018;SDS011;66942;52.138;5.216;2023-03-14T00:40:09;24.1;;;7.8;;
64018;SDS011;66942;52.138;5.216;2023-03-14T00:41:46;20.5;;;7.4;;
64018;SDS011;66942;52.138;5.216;2023-03-14T00:43:22;21.6;;;7.4;;
64018;SDS011;66942;52.138;5.216;2023-03-14T00:44:59;18.7;;;6.0;;
64018;SDS011;66942;52.138;5.216;2023-03-14T00:48:11;17.8;;;5.7;;
64018;SDS011;66942;52.138;5.216;2023-03-14T00:49:47;16.4;;;5.5;;
64018;SDS011;66942;52.138;5.216;2023-03-14T00:51:23;15.4;;;5.3;;
64018;SDS011;66942;52.138;5.216;2023-03-14T00:54:36;11.8;;;4.5;;
64018;SDS011;66942;52.138;5.216;2023-03-14T00:56:12;14.8;;;5.0;;
64018;SDS011;66942;52.138;5.216;2023-03-14T00:57:49;10.4;;;4.2;;
64018;SDS011;66942;52.138;5.216;2023-03-14T01:01:05;9.4;;;4.61;;
64018;SDS011;66942;52.138;5.216;2023-03-14T01:02:41;11.3;;;4.0;;
64018;SDS011;66942;52.138;5.216;2023-03-14T01:04:19;12.6;;;4.7;;
64018;SDS011;66942;52.138;5.216;2023-03-14T01:06:05;10.0;;;4.41;;
64018;SDS011;66942;52.138;5.216;2023-03-14T01:09:18;10.5;;;4.41;;
64018;SDS011;66942;52.138;5.216;2023-03-14T01:10:54;9.81;;;4.3;;
64018;SDS011;66942;52.138;5.216;2023-03-14T01:12:30;8.5;;;4.2;;
64018;SDS011;66942;52.138;5.216;2023-03-14T01:15:43;9.1;;;4.61;;
64018;SDS011;66942;52.138;5.216;2023-03-14T01:17:19;10.1;;;4.5;;
64018;SDS011;66942;52.138;5.216;2023-03-14T01:18:55;13.4;;;5.11;;
64018;SDS011;66942;52.138;5.216;2023-03-14T01:22:08;11.9;;;4.7;;
64018;SDS011;66942;52.138;5.216;2023-03-14T01:23:44;10.3;;;4.61;;
64018;SDS011;66942;52.138;5.216;2023-03-14T01:25:21;15.4;;;4.91;;
64018;SDS011;66942;52.138;5.216;2023-03-14T01:26:57;11.5;;;5.2;;
64018;SDS011;66942;52.138;5.216;2023-03-14T01:30:11;11.5;;;5.2;;
64018;SDS011;66942;52.138;5.216;2023-03-14T01:31:49;10.7;;;4.0;;
64018;SDS011;66942;52.138;5.216;2023-03-14T01:33:25;10.1;;;4.2;;
64018;SDS011;66942;52.138;5.216;2023-03-14T01:36:38;11.7;;;5.4;;
64018;SDS011;66942;52.138;5.216;2023-03-14T01:38:14;9.31;;;4.0;;
64018;SDS011;66942;52.138;5.216;2023-03-14T01:39:49;13.0;;;4.5;;
64018;SDS011;66942;52.138;5.216;2023-03-14T01:43:05;10.6;;;4.8;;
64018;SDS011;66942;52.138;5.216;2023-03-14T01:44:51;9.4;;;4.2;;
64018;SDS011;66942;52.138;5.216;2023-03-14T01:46:32;11.9;;;4.0;;
64018;SDS011;66942;52.138;5.216;2023-03-14T01:48:12;13.3;;;4.41;;
64018;SDS011;66942;52.138;5.216;2023-03-14T01:51:30;12.9;;;3.9;;
64018;SDS011;66942;52.138;5.216;2023-03-14T01:53:12;10.9;;;4.2;;
64018;SDS011;66942;52.138;5.216;2023-03-14T01:54:49;9.9;;;3.8;;
64018;SDS011;66942;52.138;5.216;2023-03-14T01:56:29;13.2;;;4.2;;
64018;SDS011;66942;52.138;5.216;2023-03-14T01:59:46;13.4;;;4.41;;
64018;SDS011;66942;52.138;5.216;2023-03-14T02:01:26;11.9;;;3.9;;
64018;SDS011;66942;52.138;5.216;2023-03-14T02:03:07;11.4;;;4.2;;
64018;SDS011;66942;52.138;5.216;2023-03-14T02:04:49;11.3;;;3.8;;
64018;SDS011;66942;52.138;5.216;2023-03-14T02:08:13;18.11;;;5.0;;
64018;SDS011;66942;52.138;5.216;2023-03-14T02:09:53;11.7;;;4.5;;
64018;SDS011;66942;52.138;5.216;2023-03-14T02:11:32;14.5;;;4.2;;
64018;SDS011;66942;52.138;5.216;2023-03-14T02:13:09;12.2;;;3.9;;
64018;SDS011;66942;52.138;5.216;2023-03-14T02:16:23;11.6;;;4.2;;
64018;SDS011;66942;52.138;5.216;2023-03-14T02:18:01;14.3;;;4.5;;
64018;SDS011;66942;52.138;5.216;2023-03-14T02:19:46;10.7;;;3.7;;
64018;SDS011;66942;52.138;5.216;2023-03-14T02:21:36;10.9;;;4.41;;
64018;SDS011;66942;52.138;5.216;2023-03-14T02:23:24;12.2;;;4.0;;
64018;SDS011;66942;52.138;5.216;2023-03-14T02:27:24;10.4;;;3.7;;
64018;SDS011;66942;52.138;5.216;2023-03-14T02:29:01;10.9;;;4.1;;
64018;SDS011;66942;52.138;5.216;2023-03-14T02:30:37;8.0;;;3.0;;
64018;SDS011;66942;52.138;5.216;2023-03-14T02:32:14;7.9;;;3.4;;
64018;SDS011;66942;52.138;5.216;2023-03-14T02:33:53;8.1;;;3.2;;
64018;SDS011;66942;52.138;5.216;2023-03-14T02:37:16;9.31;;;3.3;;
64018;SDS011;66942;52.138;5.216;2023-03-14T02:38:58;6.9;;;2.9;;
64018;SDS011;66942;52.138;5.216;2023-03-14T02:40:42;11.6;;;3.7;;
64018;SDS011;66942;52.138;5.216;2023-03-14T02:42:19;7.5;;;3.0;;
64018;SDS011;66942;52.138;5.216;2023-03-14T02:45:39;8.6;;;3.0;;
64018;SDS011;66942;52.138;5.216;2023-03-14T02:47:18;10.4;;;3.8;;
64018;SDS011;66942;52.138;5.216;2023-03-14T02:48:59;9.4;;;3.2;;
64018;SDS011;66942;52.138;5.216;2023-03-14T02:50:40;10.0;;;3.8;;
64018;SDS011;66942;52.138;5.216;2023-03-14T02:53:53;11.4;;;3.8;;
64018;SDS011;66942;52.138;5.216;2023-03-14T02:55:29;9.4;;;3.1;;
64018;SDS011;66942;52.138;5.216;2023-03-14T02:57:05;10.7;;;3.6;;
64018;SDS011;66942;52.138;5.216;2023-03-14T03:00:18;9.4;;;3.9;;
64018;SDS011;66942;52.138;5.216;2023-03-14T03:01:55;9.6;;;3.5;;
64018;SDS011;66942;52.138;5.216;2023-03-14T03:03:31;9.31;;;3.4;;
64018;SDS011;66942;52.138;5.216;2023-03-14T03:06:43;7.5;;;3.2;;
64018;SDS011;66942;52.138;5.216;2023-03-14T03:08:19;10.5;;;3.9;;
64018;SDS011;66942;52.138;5.216;2023-03-14T03:09:57;9.5;;;3.8;;
64018;SDS011;66942;52.138;5.216;2023-03-14T03:11:33;10.1;;;4.0;;
64018;SDS011;66942;52.138;5.216;2023-03-14T03:14:45;9.9;;;4.2;;
64018;SDS011;66942;52.138;5.216;2023-03-14T03:16:22;10.8;;;4.5;;
64018;SDS011;66942;52.138;5.216;2023-03-14T03:17:58;8.0;;;4.1;;
64018;SDS011;66942;52.138;5.216;2023-03-14T03:21:11;11.2;;;4.3;;
64018;SDS011;66942;52.138;5.216;2023-03-14T03:22:47;10.0;;;4.1;;
64018;SDS011;66942;52.138;5.216;2023-03-14T03:24:23;9.6;;;4.3;;
64018;SDS011;66942;52.138;5.216;2023-03-14T03:27:37;9.6;;;3.8;;
64018;SDS011;66942;52.138;5.216;2023-03-14T03:29:13;12.3;;;4.5;;
64018;SDS011;66942;52.138;5.216;2023-03-14T03:30:49;10.1;;;4.0;;
64018;SDS011;66942;52.138;5.216;2023-03-14T03:32:26;9.4;;;3.7;;
64018;SDS011;66942;52.138;5.216;2023-03-14T03:35:43;13.7;;;5.11;;
64018;SDS011;66942;52.138;5.216;2023-03-14T03:37:20;10.4;;;4.2;;
64018;SDS011;66942;52.138;5.216;2023-03-14T03:38:56;8.6;;;3.7;;
64018;SDS011;66942;52.138;5.216;2023-03-14T03:42:08;10.4;;;4.1;;
64018;SDS011;66942;52.138;5.216;2023-03-14T03:43:44;12.7;;;4.41;;
64018;SDS011;66942;52.138;5.216;2023-03-14T03:45:21;9.4;;;4.2;;
64018;SDS011;66942;52.138;5.216;2023-03-14T03:48:33;10.1;;;4.2;;
64018;SDS011;66942;52.138;5.216;2023-03-14T03:50:10;8.6;;;3.7;;
64018;SDS011;66942;52.138;5.216;2023-03-14T03:51:46;11.5;;;4.2;;
64018;SDS011;66942;52.138;5.216;2023-03-14T03:53:22;8.81;;;4.1;;
64018;SDS011;66942;52.138;5.216;2023-03-14T03:56:35;11.3;;;4.7;;
64018;SDS011;66942;52.138;5.216;2023-03-14T03:58:11;10.5;;;4.61;;
64018;SDS011;66942;52.138;5.216;2023-03-14T03:59:47;11.0;;;4.41;;
64018;SDS011;66942;52.138;5.216;2023-03-14T04:02:59;9.4;;;4.7;;
64018;SDS011;66942;52.138;5.216;2023-03-14T04:04:35;12.4;;;4.5;;
64018;SDS011;66942;52.138;5.216;2023-03-14T04:06:12;10.8;;;4.2;;
64018;SDS011;66942;52.138;5.216;2023-03-14T04:09:25;10.1;;;4.41;;
64018;SDS011;66942;52.138;5.216;2023-03-14T04:11:01;9.81;;;4.61;;
64018;SDS011;66942;52.138;5.216;2023-03-14T04:12:39;10.9;;;4.0;;
64018;SDS011;66942;52.138;5.216;2023-03-14T04:14:15;10.1;;;3.9;;
64018;SDS011;66942;52.138;5.216;2023-03-14T04:17:28;13.4;;;4.41;;
64018;SDS011;66942;52.138;5.216;2023-03-14T04:19:04;9.81;;;4.2;;
64018;SDS011;66942;52.138;5.216;2023-03-14T04:20:40;9.81;;;4.1;;
64018;SDS011;66942;52.138;5.216;2023-03-14T04:23:53;9.31;;;4.2;;
64018;SDS011;66942;52.138;5.216;2023-03-14T04:25:30;14.0;;;4.3;;
64018;SDS011;66942;52.138;5.216;2023-03-14T04:27:06;8.31;;;3.8;;
64018;SDS011;66942;52.138;5.216;2023-03-14T04:30:19;12.9;;;4.5;;
64018;SDS011;66942;52.138;5.216;2023-03-14T04:31:55;11.9;;;4.2;;
64018;SDS011;66942;52.138;5.216;2023-03-14T04:33:31;11.1;;;4.3;;
64018;SDS011;66942;52.138;5.216;2023-03-14T04:35:08;13.1;;;4.5;;
64018;SDS011;66942;52.138;5.216;2023-03-14T04:38:20;10.6;;;4.0;;
64018;SDS011;66942;52.138;5.216;2023-03-14T04:39:56;12.7;;;4.1;;
64018;SDS011;66942;52.138;5.216;2023-03-14T04:41:32;11.8;;;4.41;;
64018;SDS011;66942;52.138;5.216;2023-03-14T04:44:46;12.1;;;4.3;;
64018;SDS011;66942;52.138;5.216;2023-03-14T04:46:22;10.6;;;4.3;;
64018;SDS011;66942;52.138;5.216;2023-03-14T04:47:58;10.7;;;4.3;;
64018;SDS011;66942;52.138;5.216;2023-03-14T04:51:11;10.0;;;4.3;;
64018;SDS011;66942;52.138;5.216;2023-03-14T04:52:47;10.0;;;4.3;;
64018;SDS011;66942;52.138;5.216;2023-03-14T04:54:23;10.5;;;4.41;;
64018;SDS011;66942;52.138;5.216;2023-03-14T04:57:36;9.6;;;3.8;;
64018;SDS011;66942;52.138;5.216;2023-03-14T04:59:12;12.9;;;4.8;;
64018;SDS011;66942;52.138;5.216;2023-03-14T05:00:49;11.4;;;4.0;;
64018;SDS011;66942;52.138;5.216;2023-03-14T05:02:26;10.9;;;4.2;;
64018;SDS011;66942;52.138;5.216;2023-03-14T05:05:38;8.81;;;4.1;;
64018;SDS011;66942;52.138;5.216;2023-03-14T05:07:14;8.81;;;3.7;;
64018;SDS011;66942;52.138;5.216;2023-03-14T05:08:50;10.3;;;4.41;;
64018;SDS011;66942;52.138;5.216;2023-03-14T05:12:02;10.7;;;4.7;;
64018;SDS011;66942;52.138;5.216;2023-03-14T05:13:39;8.71;;;4.1;;
64018;SDS011;66942;52.138;5.216;2023-03-14T05:15:15;9.31;;;4.0;;
64018;SDS011;66942;52.138;5.216;2023-03-14T05:18:27;12.2;;;4.2;;
64018;SDS011;66942;52.138;5.216;2023-03-14T05:20:03;9.81;;;4.5;;
64018;SDS011;66942;52.138;5.216;2023-03-14T05:21:40;10.0;;;4.5;;
64018;SDS011;66942;52.138;5.216;2023-03-14T05:23:16;9.0;;;4.41;;
64018;SDS011;66942;52.138;5.216;2023-03-14T05:26:28;8.81;;;4.1;;
64018;SDS011;66942;52.138;5.216;2023-03-14T05:28:06;9.5;;;4.41;;
64018;SDS011;66942;52.138;5.216;2023-03-14T05:29:42;11.3;;;4.91;;
64018;SDS011;66942;52.138;5.216;2023-03-14T05:32:54;8.1;;;4.3;;
64018;SDS011;66942;52.138;5.216;2023-03-14T05:34:30;10.4;;;4.8;;
64018;SDS011;66942;52.138;5.216;2023-03-14T05:36:07;9.21;;;4.61;;
64018;SDS011;66942;52.138;5.216;2023-03-14T05:39:20;9.6;;;5.0;;
64018;SDS011;66942;52.138;5.216;2023-03-14T05:40:56;8.1;;;4.61;;
64018;SDS011;66942;52.138;5.216;2023-03-14T05:42:33;8.81;;;4.3;;
64018;SDS011;66942;52.138;5.216;2023-03-14T05:44:09;8.0;;;4.91;;
64018;SDS011;66942;52.138;5.216;2023-03-14T05:47:21;7.5;;;4.7;;
64018;SDS011;66942;52.138;5.216;2023-03-14T05:48:57;7.9;;;4.7;;
64018;SDS011;66942;52.138;5.216;2023-03-14T05:50:35;8.1;;;5.2;;
64018;SDS011;66942;52.138;5.216;2023-03-14T05:53:48;9.5;;;5.4;;
64018;SDS011;66942;52.138;5.216;2023-03-14T05:55:24;8.1;;;5.2;;
64018;SDS011;66942;52.138;5.216;2023-03-14T05:57:01;8.31;;;5.6;;
64018;SDS011;66942;52.138;5.216;2023-03-14T06:00:13;9.81;;;6.0;;
64018;SDS011;66942;52.138;5.216;2023-03-14T06:01:50;8.4;;;6.4;;
64018;SDS011;66942;52.138;5.216;2023-03-14T06:03:26;8.0;;;5.9;;
64018;SDS011;66942;52.138;5.216;2023-03-14T06:06:41;9.31;;;6.6;;
64018;SDS011;66942;52.138;5.216;2023-03-14T06:08:17;8.81;;;6.7;;
64018;SDS011;66942;52.138;5.216;2023-03-14T06:09:53;8.5;;;7.5;;
64018;SDS011;66942;52.138;5.216;2023-03-14T06:11:29;8.5;;;7.6;;
64018;SDS011;66942;52.138;5.216;2023-03-14T06:14:41;10.21;;;8.31;;
64018;SDS011;66942;52.138;5.216;2023-03-14T06:16:17;10.6;;;8.71;;
64018;SDS011;66942;52.138;5.216;2023-03-14T06:17:53;9.21;;;8.31;;
64018;SDS011;66942;52.138;5.216;2023-03-14T06:21:07;10.9;;;7.8;;
64018;SDS011;66942;52.138;5.216;2023-03-14T06:22:44;9.6;;;8.6;;
64018;SDS011;66942;52.138;5.216;2023-03-14T06:24:20;10.7;;;8.5;;
64018;SDS011;66942;52.138;5.216;2023-03-14T06:27:32;9.1;;;8.2;;
64018;SDS011;66942;52.138;5.216;2023-03-14T06:29:09;7.7;;;6.4;;
64018;SDS011;66942;52.138;5.216;2023-03-14T06:30:45;5.7;;;4.91;;
64018;SDS011;66942;52.138;5.216;2023-03-14T06:32:21;4.8;;;3.1;;
64018;SDS011;66942;52.138;5.216;2023-03-14T06:35:35;4.91;;;2.9;;
64018;SDS011;66942;52.138;5.216;2023-03-14T06:37:11;4.41;;;2.21;;
64018;SDS011;66942;52.138;5.216;2023-03-14T06:38:47;2.9;;;1.11;;
64018;SDS011;66942;52.138;5.216;2023-03-14T06:41:59;3.8;;;0.9;;
64018;SDS011;66942;52.138;5.216;2023-03-14T06:43:35;2.4;;;0.9;;
64018;SDS011;66942;52.138;5.216;2023-03-14T06:45:11;1.9;;;1.0;;
64018;SDS011;66942;52.138;5.216;2023-03-14T06:48:25;1.8;;;0.9;;
64018;SDS011;66942;52.138;5.216;2023-03-14T06:50:01;2.31;;;1.11;;
64018;SDS011;66942;52.138;5.216;2023-03-14T06:51:39;1.8;;;1.0;;
64018;SDS011;66942;52.138;5.216;2023-03-14T06:53:16;2.1;;;0.9;;
64018;SDS011;66942;52.138;5.216;2023-03-14T06:56:28;1.6;;;0.9;;
64018;SDS011;66942;52.138;5.216;2023-03-14T06:58:04;3.0;;;1.11;;
64018;SDS011;66942;52.138;5.216;2023-03-14T06:59:40;3.1;;;1.3;;
64018;SDS011;66942;52.138;5.216;2023-03-14T07:02:58;2.7;;;1.4;;
64018;SDS011;66942;52.138;5.216;2023-03-14T07:04:34;2.6;;;1.11;;
64018;SDS011;66942;52.138;5.216;2023-03-14T07:06:10;2.8;;;1.6;;
64018;SDS011;66942;52.138;5.216;2023-03-14T07:09:22;2.21;;;1.3;;
64018;SDS011;66942;52.138;5.216;2023-03-14T07:10:59;3.6;;;1.6;;
64018;SDS011;66942;52.138;5.216;2023-03-14T07:12:35;3.7;;;1.8;;
64018;SDS011;66942;52.138;5.216;2023-03-14T07:14:11;3.2;;;1.7;;
64018;SDS011;66942;52.138;5.216;2023-03-14T07:17:23;3.6;;;1.4;;
64018;SDS011;66942;52.138;5.216;2023-03-14T07:18:59;2.6;;;1.4;;
64018;SDS011;66942;52.138;5.216;2023-03-14T07:20:36;2.5;;;1.5;;
64018;SDS011;66942;52.138;5.216;2023-03-14T07:23:49;3.1;;;1.7;;
64018;SDS011;66942;52.138;5.216;2023-03-14T07:25:25;2.5;;;1.4;;
64018;SDS011;66942;52.138;5.216;2023-03-14T07:27:02;3.7;;;1.5;;
64018;SDS011;66942;52.138;5.216;2023-03-14T07:30:14;3.1;;;1.7;;
64018;SDS011;66942;52.138;5.216;2023-03-14T07:31:50;2.0;;;1.3;;
64018;SDS011;66942;52.138;5.216;2023-03-14T07:33:26;2.7;;;1.3;;
64018;SDS011;66942;52.138;5.216;2023-03-14T07:35:03;3.5;;;1.3;;
64018;SDS011;66942;52.138;5.216;2023-03-14T07:38:16;2.21;;;1.0;;
64018;SDS011;66942;52.138;5.216;2023-03-14T07:39:52;2.1;;;0.8;;
64018;SDS011;66942;52.138;5.216;2023-03-14T07:41:28;2.5;;;0.9;;
64018;SDS011;66942;52.138;5.216;2023-03-14T07:44:41;2.9;;;1.0;;
64018;SDS011;66942;52.138;5.216;2023-03-14T07:46:17;2.1;;;0.7;;
64018;SDS011;66942;52.138;5.216;2023-03-14T07:47:52;2.1;;;0.7;;
64018;SDS011;66942;52.138;5.216;2023-03-14T07:51:05;2.5;;;1.0;;
64018;SDS011;66942;52.138;5.216;2023-03-14T07:52:41;2.5;;;0.9;;
64018;SDS011;66942;52.138;5.216;2023-03-14T07:54:17;2.9;;;1.0;;
64018;SDS011;66942;52.138;5.216;2023-03-14T07:57:29;3.6;;;1.0;;
64018;SDS011;66942;52.138;5.216;2023-03-14T07:59:05;4.2;;;1.0;;
64018;SDS011;66942;52.138;5.216;2023-03-14T08:00:41;2.21;;;0.9;;
64018;SDS011;66942;52.138;5.216;2023-03-14T08:02:19;3.9;;;1.2;;
64018;SDS011;66942;52.138;5.216;2023-03-14T08:05:33;3.8;;;1.2;;
64018;SDS011;66942;52.138;5.216;2023-03-14T08:07:10;3.9;;;0.9;;
64018;SDS011;66942;52.138;5.216;2023-03-14T08:08:46;3.4;;;1.11;;
64018;SDS011;66942;52.138;5.216;2023-03-14T08:11:58;3.3;;;1.0;;
64018;SDS011;66942;52.138;5.216;2023-03-14T08:13:35;4.91;;;1.4;;
64018;SDS011;66942;52.138;5.216;2023-03-14T08:15:13;5.11;;;1.3;;
64018;SDS011;66942;52.138;5.216;2023-03-14T08:18:26;4.2;;;1.4;;
64018;SDS011;66942;52.138;5.216;2023-03-14T08:20:02;4.0;;;1.5;;
64018;SDS011;66942;52.138;5.216;2023-03-14T08:21:40;2.9;;;1.11;;
64018;SDS011;66942;52.138;5.216;2023-03-14T08:23:15;5.9;;;1.3;;
64018;SDS011;66942;52.138;5.216;2023-03-14T08:26:27;6.4;;;1.6;;
64018;SDS011;66942;52.138;5.216;2023-03-14T08:28:03;4.91;;;1.2;;
64018;SDS011;66942;52.138;5.216;2023-03-14T08:29:40;3.9;;;1.11;;
64018;SDS011;66942;52.138;5.216;2023-03-14T08:32:53;4.7;;;1.2;;
64018;SDS011;66942;52.138;5.216;2023-03-14T08:34:32;6.1;;;1.5;;
64018;SDS011;66942;52.138;5.216;2023-03-14T08:36:09;3.7;;;1.11;;
64018;SDS011;66942;52.138;5.216;2023-03-14T08:39:22;4.5;;;1.2;;
64018;SDS011;66942;52.138;5.216;2023-03-14T08:40:59;6.6;;;1.2;;
64018;SDS011;66942;52.138;5.216;2023-03-14T08:42:37;3.7;;;1.11;;
64018;SDS011;66942;52.138;5.216;2023-03-14T08:44:14;5.4;;;1.4;;
64018;SDS011;66942;52.138;5.216;2023-03-14T08:47:26;5.0;;;1.11;;
64018;SDS011;66942;52.138;5.216;2023-03-14T08:49:02;5.7;;;1.5;;
64018;SDS011;66942;52.138;5.216;2023-03-14T08:50:39;4.8;;;1.2;;
64018;SDS011;66942;52.138;5.216;2023-03-14T08:53:52;4.1;;;1.0;;
64018;SDS011;66942;52.138;5.216;2023-03-14T08:55:28;8.6;;;1.6;;
64018;SDS011;66942;52.138;5.216;2023-03-14T08:57:04;7.9;;;1.7;;
64018;SDS011;66942;52.138;5.216;2023-03-14T09:00:18;8.1;;;1.7;;
64018;SDS011;66942;52.138;5.216;2023-03-14T09:01:55;9.0;;;2.21;;
64018;SDS011;66942;52.138;5.216;2023-03-14T09:03:31;7.8;;;2.21;;
64018;SDS011;66942;52.138;5.216;2023-03-14T09:05:07;10.1;;;2.5;;
64018;SDS011;66942;52.138;5.216;2023-03-14T09:08:20;12.0;;;2.6;;
64018;SDS011;66942;52.138;5.216;2023-03-14T09:09:56;10.7;;;2.8;;
64018;SDS011;66942;52.138;5.216;2023-03-14T09:11:33;14.6;;;3.1;;
64018;SDS011;66942;52.138;5.216;2023-03-14T09:14:45;11.3;;;3.3;;
64018;SDS011;66942;52.138;5.216;2023-03-14T09:16:21;11.3;;;3.0;;
64018;SDS011;66942;52.138;5.216;2023-03-14T09:17:57;11.3;;;3.2;;
64018;SDS011;66942;52.138;5.216;2023-03-14T09:21:09;16.0;;;4.1;;
64018;SDS011;66942;52.138;5.216;2023-03-14T09:22:45;15.3;;;3.6;;
64018;SDS011;66942;52.138;5.216;2023-03-14T09:24:21;19.61;;;4.41;;
64018;SDS011;66942;52.138;5.216;2023-03-14T09:25:57;18.0;;;4.1;;
64018;SDS011;66942;52.138;5.216;2023-03-14T09:29:11;19.41;;;4.2;;
64018;SDS011;66942;52.138;5.216;2023-03-14T09:30:47;15.2;;;3.9;;
64018;SDS011;66942;52.138;5.216;2023-03-14T09:32:23;16.0;;;4.3;;
64018;SDS011;66942;52.138;5.216;2023-03-14T09:35:35;19.41;;;4.3;;
64018;SDS011;66942;52.138;5.216;2023-03-14T09:37:12;17.7;;;4.2;;
64018;SDS011;66942;52.138;5.216;2023-03-14T09:38:48;14.9;;;3.6;;
64018;SDS011;66942;52.138;5.216;2023-03-14T09:42:10;20.41;;;5.0;;
64018;SDS011;66942;52.138;5.216;2023-03-14T09:43:52;17.41;;;4.3;;
64018;SDS011;66942;52.138;5.216;2023-03-14T09:45:39;16.0;;;3.5;;
64018;SDS011;66942;52.138;5.216;2023-03-14T09:47:17;15.9;;;3.6;;
64018;SDS011;66942;52.138;5.216;2023-03-14T09:48:54;16.8;;;3.9;;
64018;SDS011;66942;52.138;5.216;2023-03-14T09:52:14;14.2;;;3.9;;
64018;SDS011;66942;52.138;5.216;2023-03-14T09:53:55;17.61;;;4.2;;
64018;SDS011;66942;52.138;5.216;2023-03-14T09:55:31;19.8;;;4.5;;
64018;SDS011;66942;52.138;5.216;2023-03-14T09:58:50;16.8;;;4.1;;
64018;SDS011;66942;52.138;5.216;2023-03-14T10:00:30;15.4;;;3.5;;
64018;SDS011;66942;52.138;5.216;2023-03-14T10:02:13;23.4;;;4.41;;
64018;SDS011;66942;52.138;5.216;2023-03-14T10:03:53;22.6;;;4.8;;
64018;SDS011;66942;52.138;5.216;2023-03-14T10:07:08;16.8;;;4.41;;
64018;SDS011;66942;52.138;5.216;2023-03-14T10:08:50;18.91;;;4.41;;
64018;SDS011;66942;52.138;5.216;2023-03-14T10:10:26;23.2;;;4.3;;
64018;SDS011;66942;52.138;5.216;2023-03-14T10:12:03;22.5;;;5.6;;
64018;SDS011;66942;52.138;5.216;2023-03-14T10:15:27;20.3;;;4.8;;
64018;SDS011;66942;52.138;5.216;2023-03-14T10:17:07;19.11;;;4.5;;
64018;SDS011;66942;52.138;5.216;2023-03-14T10:18:45;18.11;;;3.8;;
64018;SDS011;66942;52.138;5.216;2023-03-14T10:20:26;18.61;;;4.1;;
64018;SDS011;66942;52.138;5.216;2023-03-14T10:23:50;18.8;;;4.3;;
64018;SDS011;66942;52.138;5.216;2023-03-14T10:25:27;17.7;;;4.2;;
64018;SDS011;66942;52.138;5.216;2023-03-14T10:27:06;19.11;;;4.3;;
64018;SDS011;66942;52.138;5.216;2023-03-14T10:29:01;18.5;;;4.41;;
64018;SDS011;66942;52.138;5.216;2023-03-14T10:32:20;19.0;;;4.41;;
64018;SDS011;66942;52.138;5.216;2023-03-14T10:34:04;18.3;;;4.61;;
64018;SDS011;66942;52.138;5.216;2023-03-14T10:35:41;16.8;;;4.8;;
64018;SDS011;66942;52.138;5.216;2023-03-14T10:37:17;19.61;;;4.2;;
64018;SDS011;66942;52.138;5.216;2023-03-14T10:40:52;16.61;;;4.8;;
64018;SDS011;66942;52.138;5.216;2023-03-14T10:42:30;21.3;;;4.91;;
64018;SDS011;66942;52.138;5.216;2023-03-14T10:44:09;16.8;;;4.3;;
64018;SDS011;66942;52.138;5.216;2023-03-14T10:45:51;19.8;;;5.0;;
64018;SDS011;66942;52.138;5.216;2023-03-14T10:47:29;22.0;;;5.4;;
64018;SDS011;66942;52.138;5.216;2023-03-14T10:51:03;20.3;;;5.3;;
64018;SDS011;66942;52.138;5.216;2023-03-14T10:52:46;21.7;;;5.2;;
64018;SDS011;66942;52.138;5.216;2023-03-14T10:54:24;21.2;;;5.0;;
64018;SDS011;66942;52.138;5.216;2023-03-14T10:56:05;24.2;;;6.0;;
64018;SDS011;66942;52.138;5.216;2023-03-14T10:59:19;26.7;;;6.0;;
64018;SDS011;66942;52.138;5.216;2023-03-14T11:01:00;24.3;;;5.6;;
64018;SDS011;66942;52.138;5.216;2023-03-14T11:02:49;24.8;;;5.6;;
64018;SDS011;66942;52.138;5.216;2023-03-14T11:04:44;26.9;;;6.2;;
64018;SDS011;66942;52.138;5.216;2023-03-14T11:06:36;27.2;;;6.2;;
64018;SDS011;66942;52.138;5.216;2023-03-14T11:10:07;28.5;;;5.8;;
64018;SDS011;66942;52.138;5.216;2023-03-14T11:11:53;22.5;;;5.11;;
64018;SDS011;66942;52.138;5.216;2023-03-14T11:13:41;28.8;;;5.8;;
64018;SDS011;66942;52.138;5.216;2023-03-14T11:15:27;22.7;;;5.6;;
64018;SDS011;66942;52.138;5.216;2023-03-14T11:17:11;23.0;;;5.0;;
64018;SDS011;66942;52.138;5.216;2023-03-14T11:19:00;18.3;;;4.8;;
64018;SDS011;66942;52.138;5.216;2023-03-14T11:21:04;19.3;;;4.91;;
64018;SDS011;66942;52.138;5.216;2023-03-14T11:24:39;24.5;;;5.11;;
64018;SDS011;66942;52.138;5.216;2023-03-14T11:26:30;25.2;;;5.6;;
64018;SDS011;66942;52.138;5.216;2023-03-14T11:28:15;21.4;;;4.61;;
64018;SDS011;66942;52.138;5.216;2023-03-14T11:30:00;16.61;;;4.5;;
64018;SDS011;66942;52.138;5.216;2023-03-14T11:31:49;18.5;;;4.61;;
64018;SDS011;66942;52.138;5.216;2023-03-14T11:33:33;19.0;;;4.91;;
64018;SDS011;66942;52.138;5.216;2023-03-14T11:37:12;21.6;;;4.5;;
64018;SDS011;66942;52.138;5.216;2023-03-14T11:38:55;20.5;;;4.8;;
64018;SDS011;66942;52.138;5.216;2023-03-14T11:40:33;21.1;;;5.0;;
64018;SDS011;66942;52.138;5.216;2023-03-14T11:42:11;14.3;;;3.7;;
64018;SDS011;66942;52.138;5.216;2023-03-14T11:45:32;15.8;;;4.61;;
64018;SDS011;66942;52.138;5.216;2023-03-14T11:47:14;15.8;;;4.41;;
64018;SDS011;66942;52.138;5.216;2023-03-14T11:48:58;15.3;;;4.1;;
64018;SDS011;66942;52.138;5.216;2023-03-14T11:50:39;14.0;;;4.1;;
64018;SDS011;66942;52.138;5.216;2023-03-14T11:54:04;12.8;;;3.6;;
64018;SDS011;66942;52.138;5.216;2023-03-14T11:55:50;11.3;;;3.7;;
64018;SDS011;66942;52.138;5.216;2023-03-14T11:57:26;9.21;;;3.4;;
64018;SDS011;66942;52.138;5.216;2023-03-14T11:59:03;8.4;;;2.9;;
64018;SDS011;66942;52.138;5.216;2023-03-14T12:00:46;11.0;;;3.1;;
64018;SDS011;66942;52.138;5.216;2023-03-14T12:04:16;15.1;;;3.7;;
64018;SDS011;66942;52.138;5.216;2023-03-14T12:06:06;10.0;;;3.2;;
64018;SDS011;66942;52.138;5.216;2023-03-14T12:08:03;13.4;;;4.0;;
64018;SDS011;66942;52.138;5.216;2023-03-14T12:10:21;11.1;;;3.5;;
64018;SDS011;66942;52.138;5.216;2023-03-14T12:11:57;10.7;;;3.4;;
64018;SDS011;66942;52.138;5.216;2023-03-14T12:13:38;11.2;;;3.3;;
64018;SDS011;66942;52.138;5.216;2023-03-14T12:16:56;11.8;;;3.5;;
64018;SDS011;66942;52.138;5.216;2023-03-14T12:18:34;10.4;;;3.3;;
64018;SDS011;66942;52.138;5.216;2023-03-14T12:20:15;8.4;;;3.2;;
64018;SDS011;66942;52.138;5.216;2023-03-14T12:21:56;11.1;;;3.2;;
64018;SDS011;66942;52.138;5.216;2023-03-14T12:25:19;12.3;;;3.0;;
64018;SDS011;66942;52.138;5.216;2023-03-14T12:26:59;10.0;;;2.9;;
64018;SDS011;66942;52.138;5.216;2023-03-14T12:28:37;13.8;;;3.4;;
64018;SDS011;66942;52.138;5.216;2023-03-14T12:30:18;9.21;;;2.8;;
64018;SDS011;66942;52.138;5.216;2023-03-14T12:34:00;12.0;;;3.1;;
64018;SDS011;66942;52.138;5.216;2023-03-14T12:35:39;9.6;;;2.8;;
64018;SDS011;66942;52.138;5.216;2023-03-14T12:37:19;8.0;;;2.6;;
64018;SDS011;66942;52.138;5.216;2023-03-14T12:39:06;7.4;;;2.5;;
64018;SDS011;66942;52.138;5.216;2023-03-14T12:40:56;5.2;;;2.21;;
64018;SDS011;66942;52.138;5.216;2023-03-14T12:42:40;9.0;;;2.7;;
64018;SDS011;66942;52.138;5.216;2023-03-14T12:46:24;7.4;;;2.6;;
64018;SDS011;66942;52.138;5.216;2023-03-14T12:48:06;8.0;;;2.21;;
64018;SDS011;66942;52.138;5.216;2023-03-14T12:49:46;7.8;;;2.5;;